Time;durP1;ratioP1;P1;durP2;ratioP2;P2;SDS_P1;SDS_P2;PMS_P1;PMS_P2;Temp;Humidity;BMP_temperature;BMP_pressure;BME280_temperature;BME280_humidity;BME280_pressure;Samples;Min_cycle;Max_cycle;Signal;HPM_P1;HPM_P2
2023/12/10 00:00:48;;;;;;;25.73;6.20;;;9.20;99.90;;;;;;4988469;28;20045;-89
2023/12/10 00:03:13;;;;;;;27.10;5.75;;;9.30;99.90;;;;;;5019297;28;20031;-89
2023/12/10 00:05:39;;;;;;;25.88;5.90;;;9.30;99.90;;;;;;5002999;28;20094;-87
2023/12/10 00:08:05;;;;;;;21.65;5.15;;;9.30;99.90;;;;;;4986923;28;20038;-90
2023/12/10 00:10:30;;;;;;;21.55;4.90;;;9.30;99.90;;;;;;4994387;28;20038;-90
2023/12/10 00:12:56;;;;;;;19.55;5.22;;;9.30;99.90;;;;;;4995875;28;20061;-90
2023/12/10 00:15:22;;;;;;;14.55;4.18;;;9.30;99.90;;;;;;4995565;28;20026;-88
2023/12/10 00:17:47;;;;;;;17.77;4.93;;;9.30;99.90;;;;;;4996303;28;20386;-90
2023/12/10 00:20:14;;;;;;;23.13;4.80;;;9.30;99.90;;;;;;4995054;28;20035;-88
2023/12/10 00:22:39;;;;;;;21.98;4.82;;;9.30;99.90;;;;;;4996251;28;20030;-88
2023/12/10 00:25:06;;;;;;;27.33;5.13;;;9.30;99.90;;;;;;4995381;28;20037;-87
2023/12/10 00:27:31;;;;;;;21.20;5.30;;;9.30;99.90;;;;;;4977892;28;20030;-90
2023/12/10 00:29:57;;;;;;;20.98;5.00;;;9.30;99.90;;;;;;4978809;28;20084;-87
2023/12/10 00:32:22;;;;;;;17.10;4.07;;;9.40;99.90;;;;;;4994775;28;20038;-88
2023/12/10 00:34:48;;;;;;;17.38;5.13;;;9.40;99.90;;;;;;4962526;28;20037;-88
2023/12/10 00:37:14;;;;;;;21.27;5.30;;;9.40;99.90;;;;;;4995716;28;20034;-88
2023/12/10 00:39:39;;;;;;;23.40;5.97;;;9.40;99.90;;;;;;4994606;28;20033;-88
2023/12/10 00:42:05;;;;;;;19.55;5.05;;;9.40;99.90;;;;;;4995475;28;20034;-89
2023/12/10 00:44:31;;;;;;;25.60;6.18;;;9.30;99.90;;;;;;4962173;28;20037;-88
2023/12/10 00:46:56;;;;;;;24.38;5.35;;;9.30;99.90;;;;;;4994851;28;20049;-89
2023/12/10 00:49:22;;;;;;;23.88;6.13;;;9.30;99.90;;;;;;4994776;28;20550;-88
2023/12/10 00:51:48;;;;;;;25.10;5.35;;;9.30;99.90;;;;;;4994714;28;20481;-90
2023/12/10 00:54:13;;;;;;;23.50;5.72;;;9.30;99.90;;;;;;4994484;28;20429;-90
2023/12/10 00:56:39;;;;;;;22.90;5.30;;;9.20;99.90;;;;;;4994828;28;20031;-90
2023/12/10 00:59:05;;;;;;;18.23;4.45;;;9.20;99.90;;;;;;4978526;28;20500;-87
2023/12/10 01:01:31;;;;;;;22.92;5.78;;;9.20;99.90;;;;;;4961992;28;20034;-88
2023/12/10 01:03:57;;;;;;;21.45;5.18;;;9.20;99.90;;;;;;4995448;28;20038;-88
2023/12/10 01:06:23;;;;;;;27.45;6.10;;;9.20;99.90;;;;;;4994579;28;20037;-89
2023/12/10 01:08:48;;;;;;;22.98;5.78;;;9.20;99.90;;;;;;4994566;28;20026;-89
2023/12/10 01:11:14;;;;;;;23.30;5.15;;;9.20;99.90;;;;;;4995441;28;20081;-90
2023/12/10 01:13:40;;;;;;;19.48;4.78;;;9.20;99.90;;;;;;4994593;28;20057;-89
2023/12/10 01:16:07;;;;;;;17.80;4.90;;;9.20;99.90;;;;;;4962590;28;20034;-88
2023/12/10 01:18:32;;;;;;;25.10;5.95;;;9.20;99.90;;;;;;4994477;28;20034;-88
2023/12/10 01:20:58;;;;;;;27.15;5.75;;;9.20;99.90;;;;;;4978432;28;20142;-89
2023/12/10 01:23:24;;;;;;;22.30;5.60;;;9.20;99.90;;;;;;4994498;28;20387;-90
2023/12/10 01:25:50;;;;;;;17.40;3.85;;;9.10;99.90;;;;;;4996124;28;20026;-89
2023/12/10 01:28:15;;;;;;;19.35;4.40;;;9.10;99.90;;;;;;4995186;28;20399;-88
2023/12/10 01:30:41;;;;;;;26.95;5.63;;;9.10;99.90;;;;;;5010192;28;20014;-88
2023/12/10 01:33:07;;;;;;;22.83;5.10;;;9.10;99.90;;;;;;5017878;28;20023;-87
2023/12/10 01:35:33;;;;;;;19.70;4.88;;;9.10;99.90;;;;;;5017450;28;20019;-86
2023/12/10 01:37:59;;;;;;;21.33;4.82;;;9.10;99.90;;;;;;5016826;28;20014;-89
2023/12/10 01:40:25;;;;;;;19.80;4.72;;;9.10;99.90;;;;;;4999771;28;20022;-89
2023/12/10 01:42:51;;;;;;;21.10;4.63;;;9.10;99.90;;;;;;4983140;28;20061;-88
2023/12/10 01:45:19;;;;;;;19.98;4.43;;;9.10;99.90;;;;;;4998317;28;20041;-89
2023/12/10 01:47:49;;;;;;;21.75;5.22;;;9.10;99.90;;;;;;4982194;28;20022;-88
2023/12/10 01:50:15;;;;;;;23.73;5.45;;;9.10;99.90;;;;;;4997729;28;20026;-89
2023/12/10 01:52:44;;;;;;;15.40;4.15;;;9.10;99.90;;;;;;4981661;28;20383;-88
2023/12/10 01:55:10;;;;;;;20.08;4.20;;;9.10;99.90;;;;;;4998810;28;20018;-87
2023/12/10 01:57:37;;;;;;;17.30;4.28;;;9.10;99.90;;;;;;4997968;28;20120;-88
2023/12/10 02:00:07;;;;;;;18.98;4.28;;;9.00;99.90;;;;;;4997903;28;20077;-87
2023/12/10 02:02:36;;;;;;;19.48;4.18;;;9.00;99.90;;;;;;4997550;28;20035;-87
2023/12/10 02:05:06;;;;;;;24.83;4.82;;;9.00;99.90;;;;;;4997435;28;20037;-88
2023/12/10 02:07:32;;;;;;;17.17;4.47;;;9.00;99.90;;;;;;4997161;28;20027;-87
2023/12/10 02:09:58;;;;;;;14.25;3.75;;;8.90;99.90;;;;;;4998410;28;20381;-88
2023/12/10 02:12:24;;;;;;;21.15;4.50;;;8.90;99.90;;;;;;4980550;28;20133;-87
2023/12/10 02:14:50;;;;;;;15.15;3.67;;;8.90;99.90;;;;;;4996855;28;20031;-85
2023/12/10 02:17:16;;;;;;;19.38;4.45;;;8.90;99.90;;;;;;4998472;28;20114;-87
2023/12/10 02:19:42;;;;;;;17.02;4.07;;;8.90;99.90;;;;;;4996927;28;20027;-88
2023/12/10 02:22:11;;;;;;;18.23;3.55;;;8.80;99.90;;;;;;4996941;28;20038;-88
2023/12/10 02:24:51;;;;;;;18.85;3.65;;;8.90;99.90;;;;;;4996529;28;20398;-87
2023/12/10 02:27:17;;;;;;;15.80;4.15;;;8.80;99.90;;;;;;4996643;28;20026;-88
2023/12/10 02:29:43;;;;;;;16.67;3.60;;;8.80;99.90;;;;;;4996130;28;20022;-88
2023/12/10 02:32:09;;;;;;;16.48;4.35;;;8.80;99.90;;;;;;4980714;28;20061;-88
2023/12/10 02:34:35;;;;;;;18.17;4.07;;;8.80;99.90;;;;;;4997039;28;20026;-88
2023/12/10 02:37:02;;;;;;;17.25;4.30;;;8.80;99.90;;;;;;4997910;28;20030;-87
2023/12/10 02:39:28;;;;;;;24.17;5.00;;;8.80;99.90;;;;;;4980714;28;20117;-88
2023/12/10 02:41:53;;;;;;;18.90;5.50;;;8.80;99.90;;;;;;4996250;28;20121;-86
2023/12/10 02:44:19;;;;;;;19.50;4.18;;;8.80;99.90;;;;;;4996684;28;20561;-87
2023/12/10 02:46:47;;;;;;;16.30;4.18;;;8.80;99.90;;;;;;4980322;28;20026;-87
2023/12/10 02:49:13;;;;;;;22.67;4.65;;;8.80;99.90;;;;;;4981044;28;20488;-88
2023/12/10 02:51:39;;;;;;;19.80;4.55;;;8.80;99.90;;;;;;4979812;28;20038;-89
2023/12/10 02:54:04;;;;;;;19.13;5.45;;;8.80;99.90;;;;;;4980746;28;20053;-90
2023/12/10 02:56:30;;;;;;;17.23;4.53;;;8.70;99.90;;;;;;4965026;28;20038;-88
2023/12/10 02:58:56;;;;;;;20.50;4.72;;;8.70;99.90;;;;;;5008507;28;20052;-88
2023/12/10 03:01:22;;;;;;;23.23;4.80;;;8.70;99.90;;;;;;5002170;28;20022;-88
2023/12/10 03:03:47;;;;;;;19.88;3.75;;;8.70;99.90;;;;;;5003430;28;20056;-86
2023/12/10 03:06:14;;;;;;;15.77;4.30;;;8.70;99.90;;;;;;5019851;28;20062;-89
2023/12/10 03:08:40;;;;;;;17.85;4.78;;;8.70;99.90;;;;;;5003531;28;20076;-87
2023/12/10 03:11:06;;;;;;;16.98;3.92;;;8.70;99.90;;;;;;4997385;28;20480;-89
2023/12/10 03:13:31;;;;;;;19.75;4.28;;;8.70;99.90;;;;;;4964077;28;20061;-88
2023/12/10 03:15:57;;;;;;;18.35;5.50;;;8.70;99.90;;;;;;4980353;28;20058;-89
2023/12/10 03:18:23;;;;;;;16.90;3.70;;;8.60;99.90;;;;;;4997599;28;20034;-88
2023/12/10 03:20:48;;;;;;;18.63;4.43;;;8.60;99.90;;;;;;4996055;28;20034;-89
2023/12/10 03:23:14;;;;;;;23.52;4.55;;;8.60;99.90;;;;;;4980271;28;20035;-89
2023/12/10 03:25:40;;;;;;;20.75;4.70;;;8.60;99.90;;;;;;4996170;28;20532;-88
2023/12/10 03:28:05;;;;;;;19.95;4.22;;;8.60;99.90;;;;;;4997423;28;20034;-90
2023/12/10 03:30:31;;;;;;;22.40;4.90;;;8.60;99.90;;;;;;4980362;28;20489;-91
2023/12/10 03:32:57;;;;;;;23.35;6.10;;;8.50;99.90;;;;;;4963538;28;20022;-87
2023/12/10 03:35:22;;;;;;;21.83;4.70;;;8.60;99.90;;;;;;4963373;28;20027;-88
2023/12/10 03:37:48;;;;;;;21.15;4.40;;;8.60;99.90;;;;;;4995981;28;20069;-88
2023/12/10 03:40:14;;;;;;;18.20;4.45;;;8.50;99.90;;;;;;4996279;28;20077;-89
2023/12/10 03:42:39;;;;;;;23.77;4.88;;;8.60;99.90;;;;;;4979278;28;20042;-88
2023/12/10 03:45:05;;;;;;;29.05;4.90;;;8.60;99.90;;;;;;4979696;28;20029;-87
2023/12/10 03:47:31;;;;;;;21.65;4.25;;;8.60;99.90;;;;;;4979705;28;20031;-88
2023/12/10 03:49:57;;;;;;;20.92;4.50;;;8.60;99.90;;;;;;4979156;28;20177;-86
2023/12/10 03:52:22;;;;;;;17.73;4.07;;;8.60;99.90;;;;;;4979556;28;20035;-86
2023/12/10 03:54:48;;;;;;;22.15;4.57;;;8.60;99.90;;;;;;4979732;28;20038;-88
2023/12/10 03:57:14;;;;;;;22.58;4.63;;;8.60;99.90;;;;;;4979744;28;20033;-88
2023/12/10 03:59:39;;;;;;;24.23;5.47;;;8.60;99.90;;;;;;4996192;28;20039;-86
2023/12/10 04:02:05;;;;;;;20.40;4.57;;;8.60;99.90;;;;;;4979641;28;20034;-88
2023/12/10 04:04:31;;;;;;;24.13;5.70;;;8.60;99.90;;;;;;4995634;28;20038;-88
2023/12/10 04:06:56;;;;;;;23.38;5.25;;;8.60;99.90;;;;;;4995558;28;20030;-87
2023/12/10 04:09:22;;;;;;;24.60;4.90;;;8.60;99.90;;;;;;4997071;28;20034;-90
2023/12/10 04:11:48;;;;;;;20.70;4.88;;;8.60;99.90;;;;;;4979327;28;20459;-89
2023/12/10 04:14:14;;;;;;;19.55;4.78;;;8.70;99.90;;;;;;4995723;28;20134;-88
2023/12/10 04:16:40;;;;;;;19.00;4.63;;;8.70;99.90;;;;;;4979497;28;20485;-88
2023/12/10 04:19:05;;;;;;;18.88;4.75;;;8.70;99.90;;;;;;4979344;28;20076;-90
2023/12/10 04:21:31;;;;;;;22.75;5.45;;;8.60;99.90;;;;;;4995462;28;20038;-89
2023/12/10 04:23:57;;;;;;;27.10;5.18;;;8.60;99.90;;;;;;4979429;28;20035;-87
2023/12/10 04:26:23;;;;;;;17.88;4.55;;;8.70;99.90;;;;;;5009044;28;20094;-89
2023/12/10 04:28:49;;;;;;;20.60;4.65;;;8.70;99.90;;;;;;5018792;28;20050;-86
2023/12/10 04:31:15;;;;;;;28.02;5.55;;;8.60;99.90;;;;;;5002382;28;20045;-87
2023/12/10 04:33:44;;;;;;;27.33;5.75;;;8.70;99.90;;;;;;5001686;28;20014;-88
2023/12/10 04:36:11;;;;;;;25.30;5.20;;;8.70;99.90;;;;;;4982104;28;20030;-88
2023/12/10 04:38:37;;;;;;;23.67;5.78;;;8.70;99.90;;;;;;4996550;28;20027;-88
2023/12/10 04:41:03;;;;;;;20.98;4.85;;;8.70;99.90;;;;;;4978647;28;20375;-88
2023/12/10 04:43:29;;;;;;;21.95;5.30;;;8.70;99.90;;;;;;4995877;28;20121;-88
2023/12/10 04:45:55;;;;;;;26.13;4.55;;;8.70;99.90;;;;;;4978248;28;20049;-87
2023/12/10 04:48:21;;;;;;;22.35;4.70;;;8.70;99.90;;;;;;4994492;28;20033;-88
2023/12/10 04:50:47;;;;;;;29.85;6.13;;;8.70;99.90;;;;;;4978239;28;20030;-88
2023/12/10 04:53:13;;;;;;;23.85;4.90;;;8.70;99.90;;;;;;4995574;28;20034;-88
2023/12/10 04:55:39;;;;;;;20.90;4.68;;;8.80;99.90;;;;;;4994366;28;20022;-91
2023/12/10 04:58:04;;;;;;;26.17;5.30;;;8.80;99.90;;;;;;4993990;28;20076;-90
2023/12/10 05:00:30;;;;;;;19.17;4.35;;;8.70;99.90;;;;;;4961947;28;20034;-89
2023/12/10 05:02:56;;;;;;;24.08;5.05;;;8.70;99.90;;;;;;4994097;28;20038;-88
2023/12/10 05:05:21;;;;;;;18.73;4.35;;;8.70;99.90;;;;;;4994309;28;20092;-90
2023/12/10 05:07:50;;;;;;;16.02;4.72;;;8.70;99.90;;;;;;4978073;28;20030;-87
2023/12/10 05:10:15;;;;;;;26.05;5.88;;;8.80;99.90;;;;;;4962045;28;20026;-88
2023/12/10 05:12:41;;;;;;;22.65;4.38;;;8.70;99.90;;;;;;4977439;28;20055;-86
2023/12/10 05:15:07;;;;;;;16.38;4.43;;;8.70;99.90;;;;;;4960938;28;20121;-88
2023/12/10 05:17:33;;;;;;;19.60;4.43;;;8.70;99.90;;;;;;4977888;28;20034;-88
2023/12/10 05:19:58;;;;;;;27.85;4.97;;;8.70;99.90;;;;;;4961415;28;20092;-86
2023/12/10 05:22:24;;;;;;;20.27;4.60;;;8.70;99.90;;;;;;4977754;28;20034;-87
2023/12/10 05:24:50;;;;;;;25.77;5.35;;;8.80;99.90;;;;;;4993375;28;20046;-85
2023/12/10 05:27:15;;;;;;;24.52;4.90;;;8.80;99.90;;;;;;4977598;28;20072;-87
2023/12/10 05:29:41;;;;;;;17.77;4.10;;;8.80;99.90;;;;;;4993740;28;20030;-87
2023/12/10 05:32:07;;;;;;;19.58;5.72;;;8.80;99.90;;;;;;4961422;28;20054;-86
2023/12/10 05:34:32;;;;;;;17.65;4.18;;;8.80;99.90;;;;;;4993994;28;20382;-87
2023/12/10 05:36:58;;;;;;;14.77;4.30;;;8.80;99.90;;;;;;4977369;28;20364;-88
2023/12/10 05:39:24;;;;;;;23.50;4.82;;;8.80;99.90;;;;;;4977683;28;20390;-88
2023/12/10 05:41:50;;;;;;;21.52;5.07;;;8.80;99.90;;;;;;4994881;28;20117;-87
2023/12/10 05:44:16;;;;;;;24.98;5.80;;;8.80;99.90;;;;;;4961560;28;20065;-87
2023/12/10 05:46:41;;;;;;;24.42;6.13;;;8.80;99.90;;;;;;4977939;28;20061;-89
2023/12/10 05:49:07;;;;;;;23.85;5.50;;;8.80;99.90;;;;;;4977939;28;20097;-88
2023/12/10 05:51:33;;;;;;;20.85;4.65;;;8.80;99.90;;;;;;4978469;28;20034;-88
2023/12/10 05:53:58;;;;;;;24.58;5.25;;;8.80;99.90;;;;;;5008212;28;20019;-86
2023/12/10 05:56:24;;;;;;;19.75;5.22;;;8.90;99.90;;;;;;4984761;28;20014;-87
2023/12/10 05:58:50;;;;;;;29.13;6.00;;;8.80;99.90;;;;;;5001119;28;20006;-87
2023/12/10 06:01:16;;;;;;;22.38;4.50;;;8.90;99.90;;;;;;5016149;28;20030;-87
2023/12/10 06:03:41;;;;;;;25.58;5.05;;;8.80;99.90;;;;;;4966911;28;20120;-87
2023/12/10 06:06:07;;;;;;;26.00;4.80;;;8.90;99.90;;;;;;4995923;28;20034;-86
2023/12/10 06:08:33;;;;;;;20.20;4.75;;;8.80;99.90;;;;;;4995085;28;20514;-86
2023/12/10 06:10:59;;;;;;;20.65;5.03;;;8.90;99.90;;;;;;4992943;28;20429;-87
2023/12/10 06:13:27;;;;;;;22.70;4.75;;;8.90;99.90;;;;;;4993835;28;20042;-87
2023/12/10 06:15:54;;;;;;;22.35;5.15;;;8.90;99.90;;;;;;4961762;28;20030;-90
2023/12/10 06:18:20;;;;;;;22.27;4.35;;;8.90;99.90;;;;;;4961944;28;20565;-88
2023/12/10 06:20:46;;;;;;;27.33;5.22;;;8.90;99.90;;;;;;4993997;28;20070;-90
2023/12/10 06:23:12;;;;;;;20.33;4.63;;;8.90;99.90;;;;;;4993668;28;20038;-87
2023/12/10 06:25:37;;;;;;;23.45;5.00;;;8.90;99.90;;;;;;4977516;28;20042;-89
2023/12/10 06:28:03;;;;;;;19.77;4.32;;;8.90;99.90;;;;;;4964740;28;20031;-89
2023/12/10 06:30:29;;;;;;;22.70;4.32;;;8.90;99.90;;;;;;4981471;28;20470;-92
2023/12/10 06:32:55;;;;;;;21.95;5.00;;;8.90;99.90;;;;;;4997485;28;20035;-90
2023/12/10 06:35:21;;;;;;;24.70;4.55;;;9.00;99.90;;;;;;4981326;28;20033;-90
2023/12/10 06:37:47;;;;;;;21.38;4.15;;;8.90;99.90;;;;;;4980904;28;20030;-88
2023/12/10 06:40:13;;;;;;;15.88;4.47;;;8.90;99.90;;;;;;4997169;28;20548;-90
2023/12/10 06:42:38;;;;;;;16.35;4.28;;;8.90;99.90;;;;;;4996853;28;20062;-88
2023/12/10 06:45:05;;;;;;;24.25;5.20;;;8.90;99.90;;;;;;4996824;28;20041;-91
2023/12/10 06:47:31;;;;;;;22.20;4.68;;;8.90;99.90;;;;;;4981104;28;20122;-91
2023/12/10 06:49:56;;;;;;;19.25;4.53;;;8.90;99.90;;;;;;4964522;28;20061;-90
2023/12/10 06:52:22;;;;;;;20.25;4.57;;;8.90;99.90;;;;;;4996784;28;20037;-88
2023/12/10 06:54:47;;;;;;;16.60;3.90;;;8.90;99.90;;;;;;4980251;28;20026;-88
2023/12/10 06:57:13;;;;;;;24.27;5.25;;;8.90;99.90;;;;;;4996527;28;20030;-89
2023/12/10 06:59:39;;;;;;;24.83;5.70;;;8.90;99.90;;;;;;4997555;28;20406;-88
2023/12/10 07:02:05;;;;;;;20.25;4.38;;;8.90;99.90;;;;;;4980391;28;20053;-88
2023/12/10 07:04:30;;;;;;;21.52;5.25;;;9.00;99.90;;;;;;4980065;28;20125;-88
2023/12/10 07:06:56;;;;;;;24.23;5.50;;;9.00;99.90;;;;;;4996545;28;20038;-89
2023/12/10 07:09:23;;;;;;;23.98;4.63;;;9.00;99.90;;;;;;4996283;28;20030;-91
2023/12/10 07:11:49;;;;;;;17.73;5.18;;;9.00;99.90;;;;;;4996286;28;20180;-88
2023/12/10 07:14:16;;;;;;;22.83;5.22;;;9.00;99.90;;;;;;4996414;28;20054;-88
2023/12/10 07:16:41;;;;;;;17.70;3.97;;;9.10;99.90;;;;;;4996803;28;20042;-90
2023/12/10 07:19:07;;;;;;;19.52;4.30;;;9.10;99.90;;;;;;4997396;28;20045;-94
2023/12/10 07:21:33;;;;;;;24.02;5.25;;;9.10;99.90;;;;;;4994495;28;20054;-94
2023/12/10 07:23:58;;;;;;;15.88;3.95;;;9.10;99.90;;;;;;5003232;28;20030;-90
2023/12/10 07:26:25;;;;;;;21.20;4.63;;;9.10;99.90;;;;;;5019882;28;20010;-87
2023/12/10 07:28:51;;;;;;;23.83;4.70;;;9.10;99.90;;;;;;5019570;28;20037;-90
2023/12/10 07:31:18;;;;;;;22.08;4.68;;;9.10;99.90;;;;;;4987564;28;20041;-93
2023/12/10 07:33:44;;;;;;;17.00;3.67;;;9.10;99.90;;;;;;5005807;28;20113;-94
2023/12/10 07:36:10;;;;;;;18.23;4.28;;;9.10;99.90;;;;;;5004689;28;20031;-90
2023/12/10 07:38:36;;;;;;;17.88;4.60;;;9.20;99.90;;;;;;4996724;28;20026;-90
2023/12/10 07:41:04;;;;;;;23.02;4.43;;;9.20;99.90;;;;;;4996037;28;20105;-93
2023/12/10 07:43:30;;;;;;;18.23;4.10;;;9.20;99.90;;;;;;4996846;28;20037;-93
2023/12/10 07:45:56;;;;;;;10.43;3.35;;;9.20;99.90;;;;;;4996156;28;20081;-90
2023/12/10 07:48:21;;;;;;;23.10;4.75;;;9.20;99.90;;;;;;4996861;28;20035;-92
2023/12/10 07:50:47;;;;;;;24.98;4.93;;;9.20;99.90;;;;;;4995746;28;20129;-92
2023/12/10 07:53:13;;;;;;;19.73;3.85;;;9.20;99.90;;;;;;4995948;28;20030;-94
2023/12/10 07:55:38;;;;;;;17.35;3.90;;;9.20;99.90;;;;;;4997261;28;20057;-92
2023/12/10 07:58:04;;;;;;;23.85;5.20;;;9.20;99.90;;;;;;4996315;28;20463;-91
2023/12/10 08:00:29;;;;;;;19.83;4.25;;;9.20;99.90;;;;;;5001152;28;20037;-92
2023/12/10 08:02:55;;;;;;;15.02;3.90;;;9.20;99.90;;;;;;4999956;28;20035;-93
2023/12/10 08:05:21;;;;;;;18.80;4.00;;;9.20;99.90;;;;;;4979995;28;20614;-90
2023/12/10 08:07:47;;;;;;;12.75;3.45;;;9.20;99.90;;;;;;4978906;28;20038;-91
2023/12/10 08:10:13;;;;;;;20.05;4.38;;;9.20;99.90;;;;;;4995220;28;20513;-90
2023/12/10 08:12:39;;;;;;;16.83;4.25;;;9.20;99.90;;;;;;4994926;28;20482;-91
2023/12/10 08:15:05;;;;;;;19.83;5.35;;;9.20;99.90;;;;;;4979411;28;20036;-92
2023/12/10 08:17:31;;;;;;;22.15;4.60;;;9.20;99.90;;;;;;4994989;28;20034;-92
2023/12/10 08:19:57;;;;;;;21.45;4.05;;;9.20;99.90;;;;;;4995143;28;20110;-93
2023/12/10 08:22:22;;;;;;;26.13;4.78;;;9.20;99.90;;;;;;4963203;28;20085;-89
2023/12/10 08:24:48;;;;;;;18.48;4.78;;;9.20;99.90;;;;;;4979325;28;20034;-92
2023/12/10 08:27:14;;;;;;;19.90;3.97;;;9.20;99.90;;;;;;4979002;28;20117;-90
2023/12/10 08:29:40;;;;;;;18.40;4.22;;;9.20;99.90;;;;;;4995370;28;20477;-93
2023/12/10 08:32:06;;;;;;;19.73;4.20;;;9.20;99.90;;;;;;4996414;28;20133;-92
2023/12/10 08:34:31;;;;;;;17.40;4.38;;;9.20;99.90;;;;;;4962963;28;20034;-93
2023/12/10 08:36:57;;;;;;;21.33;4.78;;;9.20;99.90;;;;;;5001585;28;20038;-89
2023/12/10 08:39:23;;;;;;;17.30;4.07;;;9.30;99.90;;;;;;4963558;28;20477;-92
2023/12/10 08:41:49;;;;;;;19.27;4.57;;;9.20;99.90;;;;;;4964010;28;20536;-92
2023/12/10 08:44:15;;;;;;;19.10;4.28;;;9.30;99.90;;;;;;4996615;28;20026;-92
2023/12/10 08:46:41;;;;;;;20.30;3.60;;;9.30;99.90;;;;;;4962860;28;20027;-93
2023/12/10 08:49:06;;;;;;;20.98;4.00;;;9.30;99.90;;;;;;4997015;28;20040;-91
2023/12/10 08:51:32;;;;;;;19.65;4.25;;;9.30;99.90;;;;;;5015704;28;20030;-92
2023/12/10 08:53:59;;;;;;;18.52;4.20;;;9.30;99.90;;;;;;5017872;28;20006;-91
2023/12/10 08:56:25;;;;;;;19.40;4.38;;;9.30;99.90;;;;;;4986404;28;20010;-89
2023/12/10 08:58:51;;;;;;;11.90;3.33;;;9.30;99.90;;;;;;4998231;28;20023;-89
2023/12/10 09:01:17;;;;;;;17.90;3.92;;;9.40;99.90;;;;;;4997590;28;20115;-92
2023/12/10 09:03:45;;;;;;;17.25;3.70;;;9.40;99.90;;;;;;4979728;28;20026;-92
2023/12/10 09:06:13;;;;;;;16.60;4.13;;;9.30;99.90;;;;;;4979518;28;20027;-92
2023/12/10 09:08:39;;;;;;;23.60;4.82;;;9.30;99.90;;;;;;4979011;28;20558;-88
2023/12/10 09:11:05;;;;;;;17.13;3.90;;;9.30;99.90;;;;;;4994615;28;20065;-94
2023/12/10 09:13:32;;;;;;;16.00;3.80;;;9.30;99.90;;;;;;4994149;28;20525;-90
2023/12/10 09:15:58;;;;;;;18.48;4.05;;;9.30;99.90;;;;;;4994385;28;20034;-89
2023/12/10 09:18:24;;;;;;;18.45;4.60;;;9.30;99.90;;;;;;4978314;28;20062;-91
2023/12/10 09:20:50;;;;;;;17.67;3.67;;;9.30;99.90;;;;;;4978563;28;20398;-92
2023/12/10 09:23:16;;;;;;;17.60;3.58;;;9.40;99.90;;;;;;4998212;28;20037;-91
2023/12/10 09:25:41;;;;;;;15.55;3.55;;;9.40;99.90;;;;;;4980314;28;20026;-91
2023/12/10 09:28:07;;;;;;;15.98;4.25;;;9.40;99.90;;;;;;4994532;28;20359;-90
2023/12/10 09:30:32;;;;;;;16.75;4.07;;;9.40;99.90;;;;;;4977916;28;20383;-90
2023/12/10 09:32:58;;;;;;;23.55;4.32;;;9.40;99.90;;;;;;4977798;28;20038;-92
2023/12/10 09:35:24;;;;;;;15.75;3.97;;;9.40;99.90;;;;;;4977967;28;20040;-92
2023/12/10 09:37:49;;;;;;;16.27;4.82;;;9.50;99.90;;;;;;4962380;28;20089;-92
2023/12/10 09:40:15;;;;;;;11.13;3.10;;;9.50;99.90;;;;;;4978420;28;20038;-89
2023/12/10 09:42:41;;;;;;;19.60;3.78;;;9.50;99.90;;;;;;4993691;28;20113;-90
2023/12/10 09:45:07;;;;;;;13.98;3.72;;;9.50;99.90;;;;;;4977902;28;20069;-90
2023/12/10 09:47:35;;;;;;;18.15;3.50;;;9.50;99.90;;;;;;4993824;28;20022;-88
2023/12/10 09:50:05;;;;;;;16.63;3.97;;;9.50;99.90;;;;;;4993699;28;20046;-92
2023/12/10 09:52:30;;;;;;;15.85;3.90;;;9.50;99.90;;;;;;4978430;28;20067;-93
2023/12/10 09:54:56;;;;;;;15.07;4.25;;;9.60;99.90;;;;;;4994958;28;20497;-92
2023/12/10 09:57:22;;;;;;;20.48;4.20;;;9.50;99.90;;;;;;4993884;28;20038;-89
2023/12/10 09:59:51;;;;;;;13.00;3.47;;;9.60;99.90;;;;;;4994637;28;20026;-88
2023/12/10 10:02:17;;;;;;;15.27;4.03;;;9.60;99.90;;;;;;4998383;28;20034;-89
2023/12/10 10:04:43;;;;;;;14.45;3.47;;;9.60;99.90;;;;;;4997606;28;20037;-89
2023/12/10 10:07:09;;;;;;;13.50;3.40;;;9.60;99.90;;;;;;4997444;28;20030;-90
2023/12/10 10:09:36;;;;;;;13.90;3.28;;;9.60;99.90;;;;;;4981485;28;20122;-87
2023/12/10 10:12:02;;;;;;;14.23;3.42;;;9.60;99.90;;;;;;4981345;28;20093;-90
2023/12/10 10:14:28;;;;;;;17.63;3.95;;;9.60;99.90;;;;;;4999061;28;20050;-87
2023/12/10 10:16:53;;;;;;;17.45;3.70;;;9.60;99.90;;;;;;4981930;28;20039;-89
2023/12/10 10:19:19;;;;;;;17.55;3.58;;;9.70;99.90;;;;;;4974192;28;20030;-87
2023/12/10 10:21:45;;;;;;;14.07;3.42;;;9.70;99.90;;;;;;5004368;28;20038;-95
2023/12/10 10:24:11;;;;;;;21.48;3.80;;;9.70;99.90;;;;;;5004649;28;20038;-88
2023/12/10 10:26:38;;;;;;;14.05;3.60;;;9.70;99.90;;;;;;5021247;28;20037;-90
2023/12/10 10:29:07;;;;;;;15.45;3.88;;;9.70;99.90;;;;;;4974911;28;20121;-90
2023/12/10 10:31:34;;;;;;;15.88;3.95;;;9.70;99.90;;;;;;4999019;28;20052;-90
2023/12/10 10:34:05;;;;;;;15.88;3.90;;;9.70;99.90;;;;;;4999181;28;20169;-92
2023/12/10 10:36:31;;;;;;;16.77;3.95;;;9.80;99.90;;;;;;4998077;28;20050;-87
2023/12/10 10:38:57;;;;;;;15.35;3.42;;;9.80;99.90;;;;;;4980265;28;20026;-90
2023/12/10 10:41:24;;;;;;;16.67;3.88;;;9.80;99.90;;;;;;4996494;28;20045;-88
2023/12/10 10:43:50;;;;;;;14.98;4.28;;;9.80;99.90;;;;;;4996482;28;20026;-92
2023/12/10 10:46:21;;;;;;;17.50;4.40;;;9.80;99.90;;;;;;4996443;28;20438;-89
2023/12/10 10:48:53;;;;;;;15.80;4.30;;;9.80;99.90;;;;;;4996693;28;20034;-89
2023/12/10 10:51:25;;;;;;;19.30;4.22;;;9.90;99.90;;;;;;4998500;28;20034;-88
2023/12/10 10:53:54;;;;;;;12.90;3.63;;;9.90;99.90;;;;;;5000715;28;20051;-90
2023/12/10 10:56:20;;;;;;;17.33;3.60;;;9.90;99.90;;;;;;4997378;28;20462;-92
2023/12/10 10:58:46;;;;;;;12.35;3.65;;;9.90;99.90;;;;;;4981140;28;20107;-91
2023/12/10 11:01:37;;;;;;;19.55;4.20;;;9.90;99.90;;;;;;4964494;28;20038;-91
2023/12/10 11:04:02;;;;;;;19.02;3.90;;;10.00;99.90;;;;;;4996587;28;20023;-89
2023/12/10 11:06:28;;;;;;;19.45;4.40;;;10.00;99.90;;;;;;4980145;28;20080;-88
2023/12/10 11:09:00;;;;;;;18.45;4.57;;;10.10;99.90;;;;;;4997386;28;20030;-87
2023/12/10 11:11:26;;;;;;;19.48;4.00;;;10.10;99.90;;;;;;4995687;28;20401;-87
2023/12/10 11:13:53;;;;;;;14.77;4.28;;;10.10;99.90;;;;;;4995957;28;20050;-89
2023/12/10 11:16:21;;;;;;;14.77;3.15;;;10.10;99.90;;;;;;4996654;28;20034;-92
2023/12/10 11:18:56;;;;;;;15.27;4.20;;;10.20;99.90;;;;;;4980960;28;20109;-92
2023/12/10 11:21:22;;;;;;;16.42;4.47;;;10.20;99.90;;;;;;4981053;28;20125;-90
2023/12/10 11:23:48;;;;;;;18.08;4.40;;;10.20;99.90;;;;;;4980856;28;20418;-91
2023/12/10 11:26:14;;;;;;;15.38;4.30;;;10.20;99.90;;;;;;4981398;28;20030;-90
2023/12/10 11:28:42;;;;;;;13.43;3.55;;;10.30;99.90;;;;;;4981306;28;20030;-89
2023/12/10 11:31:08;;;;;;;13.48;3.95;;;10.30;99.90;;;;;;4981284;28;20038;-92
2023/12/10 11:33:38;;;;;;;18.65;4.38;;;10.30;99.90;;;;;;4981235;28;20141;-90
2023/12/10 11:36:05;;;;;;;21.13;3.97;;;10.30;99.90;;;;;;4997843;28;20058;-90
2023/12/10 11:38:31;;;;;;;17.83;4.38;;;10.40;99.90;;;;;;4997674;28;20034;-90
2023/12/10 11:40:57;;;;;;;17.05;3.80;;;10.40;99.90;;;;;;4981649;28;20568;-90
2023/12/10 11:43:23;;;;;;;20.95;3.72;;;10.40;99.90;;;;;;4997536;28;20026;-88
2023/12/10 11:45:51;;;;;;;18.92;3.53;;;10.40;99.90;;;;;;4982163;28;20099;-89
2023/12/10 11:48:18;;;;;;;16.45;3.35;;;10.50;99.90;;;;;;5000761;28;20057;-89
2023/12/10 11:50:46;;;;;;;14.13;3.22;;;10.50;99.90;;;;;;5001078;28;20034;-88
2023/12/10 11:53:12;;;;;;;14.10;3.42;;;10.60;99.90;;;;;;5002207;28;20078;-89
2023/12/10 11:55:37;;;;;;;13.55;3.63;;;10.60;99.90;;;;;;5019590;28;20026;-89
2023/12/10 11:58:03;;;;;;;16.40;3.30;;;10.60;99.90;;;;;;5001807;28;20015;-87
2023/12/10 12:00:29;;;;;;;16.23;3.15;;;10.70;99.90;;;;;;5003442;28;20085;-88
2023/12/10 12:02:54;;;;;;;15.48;3.63;;;10.60;99.90;;;;;;4998756;28;20045;-91
2023/12/10 12:05:20;;;;;;;16.85;3.45;;;10.60;99.90;;;;;;4984871;28;20030;-87
2023/12/10 12:07:48;;;;;;;12.52;3.40;;;10.60;99.90;;;;;;4996586;28;20427;-88
2023/12/10 12:10:15;;;;;;;11.35;2.78;;;10.60;99.90;;;;;;4996856;28;20034;-87
2023/12/10 12:12:46;;;;;;;12.25;2.97;;;10.60;99.90;;;;;;4980236;28;20125;-86
2023/12/10 12:15:13;;;;;;;12.25;2.80;;;10.60;99.90;;;;;;4997663;28;20121;-88
2023/12/10 12:17:41;;;;;;;14.23;3.30;;;10.60;99.90;;;;;;4996136;28;20050;-88
2023/12/10 12:20:18;;;;;;;15.32;3.22;;;10.60;99.90;;;;;;4996473;28;20030;-88
2023/12/10 12:22:45;;;;;;;15.25;2.85;;;10.60;99.90;;;;;;4994519;28;20042;-89
2023/12/10 12:25:11;;;;;;;14.52;2.83;;;10.60;99.90;;;;;;4994667;28;20022;-91
2023/12/10 12:27:36;;;;;;;14.35;2.92;;;10.60;99.90;;;;;;4962356;28;20034;-87
2023/12/10 12:30:03;;;;;;;11.55;3.17;;;10.70;99.90;;;;;;4962007;28;20065;-89
2023/12/10 12:32:28;;;;;;;10.98;2.45;;;10.70;99.90;;;;;;4978387;28;20050;-92
2023/12/10 12:34:54;;;;;;;13.32;2.92;;;10.70;99.90;;;;;;4980057;28;20031;-89
2023/12/10 12:37:20;;;;;;;12.05;2.75;;;10.70;99.90;;;;;;4995827;28;20050;-88
2023/12/10 12:39:45;;;;;;;11.40;2.65;;;10.80;99.90;;;;;;4979413;28;20030;-89